Time;durP1;ratioP1;P1;durP2;ratioP2;P2;SDS_P1;SDS_P2;PMS_P1;PMS_P2;Temp;Humidity;BMP_temperature;BMP_pressure;BME280_temperature;BME280_humidity;BME280_pressure;Samples;Min_cycle;Max_cycle;Signal;HPM_P1;HPM_P2
2023/12/17 00:01:58;;;;;;;10.00;4.43;;;10.40;99.90;;;;;;4986294;28;20429;-63
2023/12/17 00:04:24;;;;;;;9.23;4.10;;;10.40;99.90;;;;;;4985622;28;20115;-63
2023/12/17 00:06:50;;;;;;;9.98;5.03;;;10.20;99.90;;;;;;4975795;28;20039;-63
2023/12/17 00:09:17;;;;;;;7.05;4.55;;;10.40;99.90;;;;;;4983939;28;20077;-63
2023/12/17 00:11:43;;;;;;;7.70;4.30;;;10.40;99.90;;;;;;4969542;28;20050;-64
2023/12/17 00:14:14;;;;;;;6.00;3.92;;;10.40;99.90;;;;;;4984862;28;20054;-64
2023/12/17 00:16:41;;;;;;;9.48;4.50;;;10.30;99.90;;;;;;4984907;28;20486;-63
2023/12/17 00:19:07;;;;;;;9.77;4.18;;;10.30;99.90;;;;;;4984456;28;20054;-63
2023/12/17 00:21:34;;;;;;;6.00;4.07;;;10.20;99.90;;;;;;4985147;28;20061;-63
2023/12/17 00:24:00;;;;;;;8.27;4.40;;;10.40;99.90;;;;;;4985330;28;20641;-64
2023/12/17 00:26:27;;;;;;;7.10;3.80;;;10.40;99.90;;;;;;4985439;28;20062;-64
2023/12/17 00:28:53;;;;;;;8.07;3.97;;;10.40;99.90;;;;;;4968243;28;20069;-63
2023/12/17 00:31:19;;;;;;;8.57;4.15;;;10.20;99.90;;;;;;4984629;28;20070;-63
2023/12/17 00:33:46;;;;;;;9.20;4.10;;;10.10;99.90;;;;;;4985920;28;20401;-64
2023/12/17 00:36:13;;;;;;;6.13;3.50;;;10.30;99.90;;;;;;4985024;28;20050;-63
2023/12/17 00:38:39;;;;;;;13.30;4.25;;;10.10;99.90;;;;;;4968401;28;20055;-63
2023/12/17 00:41:05;;;;;;;7.30;3.80;;;10.10;99.90;;;;;;4987337;28;20133;-63
2023/12/17 00:43:32;;;;;;;8.38;3.72;;;10.30;99.90;;;;;;4988231;28;20054;-63
2023/12/17 00:45:59;;;;;;;9.88;4.40;;;10.30;99.90;;;;;;4988160;28;20130;-63
2023/12/17 00:48:25;;;;;;;6.93;4.60;;;10.20;99.90;;;;;;4971611;28;20050;-63
2023/12/17 00:50:51;;;;;;;9.75;4.72;;;10.30;99.90;;;;;;4988319;28;20077;-64
2023/12/17 00:53:18;;;;;;;7.60;4.45;;;10.30;99.90;;;;;;4988086;28;20054;-63
2023/12/17 00:55:44;;;;;;;9.32;4.68;;;10.00;99.90;;;;;;4987636;28;20055;-64
2023/12/17 00:58:10;;;;;;;11.23;5.07;;;10.20;99.90;;;;;;4987209;28;20054;-63
2023/12/17 01:00:36;;;;;;;10.40;5.78;;;10.20;99.90;;;;;;4988219;28;20051;-63
2023/12/17 01:03:03;;;;;;;9.20;5.05;;;10.10;99.90;;;;;;4988683;28;20047;-63
2023/12/17 01:05:29;;;;;;;10.40;5.45;;;10.30;99.90;;;;;;4952462;28;20065;-63
2023/12/17 01:07:55;;;;;;;10.43;5.68;;;10.20;99.90;;;;;;4978094;28;20054;-63
2023/12/17 01:10:22;;;;;;;10.13;5.55;;;10.00;99.90;;;;;;4988253;28;20055;-63
2023/12/17 01:12:48;;;;;;;13.52;5.93;;;10.00;99.90;;;;;;4989253;28;20058;-63
2023/12/17 01:15:14;;;;;;;9.32;5.75;;;10.20;99.90;;;;;;4988143;28;20126;-63
2023/12/17 01:17:41;;;;;;;11.93;5.35;;;10.20;99.90;;;;;;4987264;28;20058;-63
2023/12/17 01:20:08;;;;;;;9.43;5.35;;;10.20;99.90;;;;;;4988034;28;20043;-63
2023/12/17 01:22:35;;;;;;;14.75;5.72;;;10.20;99.90;;;;;;4971541;28;20133;-63
2023/12/17 01:25:01;;;;;;;8.77;5.80;;;10.00;99.90;;;;;;4987787;28;20493;-63
2023/12/17 01:27:27;;;;;;;11.40;5.63;;;10.10;99.90;;;;;;4987099;28;20534;-63
2023/12/17 01:29:53;;;;;;;14.20;5.75;;;10.00;99.90;;;;;;4988190;28;20065;-63
2023/12/17 01:32:20;;;;;;;9.95;5.63;;;10.10;99.90;;;;;;4987628;28;20054;-63
2023/12/17 01:34:46;;;;;;;11.45;5.80;;;10.10;99.90;;;;;;4971650;28;20363;-63
2023/12/17 01:37:13;;;;;;;13.27;5.32;;;10.20;99.90;;;;;;4986526;28;20050;-64
2023/12/17 01:39:39;;;;;;;10.50;5.55;;;10.00;99.90;;;;;;4968130;28;20055;-63
2023/12/17 01:42:06;;;;;;;10.13;4.85;;;10.10;99.90;;;;;;4968319;28;20054;-63
2023/12/17 01:44:32;;;;;;;10.98;5.95;;;10.10;99.90;;;;;;4968335;28;20138;-63
2023/12/17 01:46:59;;;;;;;9.15;5.32;;;10.30;99.90;;;;;;4969307;28;20102;-63
2023/12/17 01:49:25;;;;;;;9.70;5.38;;;10.10;99.90;;;;;;4987187;28;20129;-63
2023/12/17 01:51:52;;;;;;;11.50;5.57;;;10.20;99.90;;;;;;4971191;28;20133;-63
2023/12/17 01:54:19;;;;;;;9.57;5.07;;;10.20;99.90;;;;;;4987351;28;20050;-63
2023/12/17 01:56:46;;;;;;;9.85;4.68;;;10.00;99.90;;;;;;4987073;28;20054;-63
2023/12/17 01:59:12;;;;;;;11.40;5.40;;;10.20;99.90;;;;;;4987027;28;20164;-63
2023/12/17 02:01:39;;;;;;;7.78;4.80;;;10.00;99.90;;;;;;4987962;28;20051;-63
2023/12/17 02:04:06;;;;;;;9.02;5.32;;;10.30;99.90;;;;;;4987653;28;20046;-63
2023/12/17 02:06:33;;;;;;;10.63;5.38;;;10.10;99.90;;;;;;4987612;28;20046;-63
2023/12/17 02:08:59;;;;;;;12.73;6.25;;;10.00;99.90;;;;;;4980813;28;20061;-63
2023/12/17 02:11:26;;;;;;;9.38;5.57;;;10.20;99.90;;;;;;4968360;28;20059;-63
2023/12/17 02:13:52;;;;;;;10.90;5.40;;;10.20;99.90;;;;;;4967907;28;20050;-64
2023/12/17 02:16:18;;;;;;;8.68;5.55;;;10.00;99.90;;;;;;4967481;28;20072;-64
2023/12/17 02:18:44;;;;;;;10.27;5.57;;;10.20;99.90;;;;;;4982711;28;20054;-64
2023/12/17 02:21:11;;;;;;;8.60;5.57;;;10.00;99.90;;;;;;4986872;28;20069;-64
2023/12/17 02:23:37;;;;;;;8.65;5.63;;;10.20;99.90;;;;;;4971110;28;20060;-63
2023/12/17 02:26:04;;;;;;;8.30;5.18;;;10.00;99.90;;;;;;4987235;28;20047;-63
2023/12/17 02:28:30;;;;;;;9.20;5.82;;;10.00;99.90;;;;;;4986494;28;20066;-63
2023/12/17 02:30:57;;;;;;;12.80;6.55;;;10.10;99.90;;;;;;4971125;28;20290;-63
2023/12/17 02:33:23;;;;;;;12.55;5.75;;;10.20;99.90;;;;;;4971184;28;20058;-63
2023/12/17 02:35:49;;;;;;;12.27;5.90;;;10.00;99.90;;;;;;4988226;28;20077;-63
2023/12/17 02:38:16;;;;;;;10.40;5.53;;;10.20;99.90;;;;;;4986541;28;20510;-63
2023/12/17 02:40:45;;;;;;;10.88;6.38;;;10.00;99.90;;;;;;4987260;28;20047;-63
2023/12/17 02:43:11;;;;;;;9.30;5.38;;;10.20;99.90;;;;;;4986963;28;20420;-63
2023/12/17 02:45:38;;;;;;;10.55;5.57;;;10.20;99.90;;;;;;4987022;28;20057;-63
2023/12/17 02:48:04;;;;;;;10.35;5.70;;;10.10;99.90;;;;;;4986639;28;20053;-63
2023/12/17 02:50:30;;;;;;;13.43;5.65;;;10.20;99.90;;;;;;4986425;28;20050;-63
2023/12/17 02:52:57;;;;;;;7.97;5.75;;;10.00;99.90;;;;;;4986384;28;20050;-62
2023/12/17 02:55:23;;;;;;;11.43;6.00;;;10.10;99.90;;;;;;4986585;28;20046;-62
2023/12/17 02:57:49;;;;;;;11.60;5.70;;;10.20;99.90;;;;;;4985838;28;20042;-62
2023/12/17 03:00:16;;;;;;;10.23;6.38;;;10.00;99.90;;;;;;4985827;28;20054;-62
2023/12/17 03:02:42;;;;;;;10.82;6.05;;;10.00;99.90;;;;;;4969831;28;20116;-62
2023/12/17 03:05:10;;;;;;;12.10;6.10;;;10.00;99.90;;;;;;4986853;28;20050;-62
2023/12/17 03:07:36;;;;;;;11.75;6.18;;;10.00;99.90;;;;;;4986329;28;20462;-63
2023/12/17 03:10:03;;;;;;;8.18;6.10;;;9.90;99.90;;;;;;4987726;28;20518;-62
2023/12/17 03:12:29;;;;;;;13.50;5.95;;;9.90;99.90;;;;;;4988124;28;20499;-63
2023/12/17 03:14:56;;;;;;;13.90;6.15;;;10.00;99.90;;;;;;4986961;28;20264;-62
2023/12/17 03:17:22;;;;;;;9.43;5.97;;;9.90;99.90;;;;;;4985618;28;20051;-62
2023/12/17 03:19:48;;;;;;;10.77;6.07;;;10.00;99.90;;;;;;4967398;28;20186;-62
2023/12/17 03:22:14;;;;;;;11.93;5.65;;;10.20;99.90;;;;;;4977207;28;20156;-62
2023/12/17 03:24:41;;;;;;;9.88;5.82;;;10.10;99.90;;;;;;4956623;28;20047;-63
2023/12/17 03:27:07;;;;;;;11.63;6.45;;;10.00;99.90;;;;;;4969745;28;20505;-63
2023/12/17 03:29:33;;;;;;;10.20;6.30;;;10.20;99.90;;;;;;4986701;28;20481;-63
2023/12/17 03:32:02;;;;;;;11.55;6.50;;;10.20;99.90;;;;;;4969582;28;20265;-63
2023/12/17 03:34:29;;;;;;;11.10;6.18;;;10.10;99.90;;;;;;4984010;28;20058;-62
2023/12/17 03:36:55;;;;;;;9.00;5.43;;;10.20;99.90;;;;;;4984320;28;20046;-62
2023/12/17 03:39:22;;;;;;;10.50;6.13;;;10.20;99.90;;;;;;4965366;28;20059;-63
2023/12/17 03:41:48;;;;;;;6.97;5.70;;;10.20;99.90;;;;;;4965270;28;20046;-62
2023/12/17 03:44:14;;;;;;;10.00;5.90;;;10.00;99.90;;;;;;4949967;28;20059;-62
2023/12/17 03:46:41;;;;;;;8.35;5.80;;;10.10;99.90;;;;;;4965446;28;20062;-63
2023/12/17 03:49:07;;;;;;;9.70;5.50;;;10.20;99.90;;;;;;4984666;28;20395;-62
2023/12/17 03:51:33;;;;;;;10.82;6.30;;;10.30;99.90;;;;;;4985782;28;20066;-63
2023/12/17 03:54:00;;;;;;;9.27;6.22;;;10.20;99.90;;;;;;4985395;28;20450;-63
2023/12/17 03:56:27;;;;;;;7.32;5.97;;;10.20;99.90;;;;;;4985137;28;20057;-62
2023/12/17 03:58:53;;;;;;;9.13;6.25;;;10.20;99.90;;;;;;4984522;28;20046;-62
2023/12/17 04:01:19;;;;;;;11.40;6.47;;;10.20;99.90;;;;;;4969341;28;20058;-63
2023/12/17 04:03:46;;;;;;;10.95;6.55;;;10.20;99.90;;;;;;4985439;28;20046;-62
2023/12/17 04:06:12;;;;;;;9.27;5.75;;;10.20;99.90;;;;;;4985182;28;20522;-62
2023/12/17 04:08:38;;;;;;;14.30;6.13;;;9.90;99.90;;;;;;4968267;28;20062;-62
2023/12/17 04:11:05;;;;;;;11.95;6.28;;;10.00;99.90;;;;;;4969428;28;20097;-62
2023/12/17 04:13:31;;;;;;;10.13;5.80;;;10.20;99.90;;;;;;4968969;28;20137;-63
2023/12/17 04:15:57;;;;;;;9.38;5.80;;;10.00;99.90;;;;;;4972607;28;20447;-62
2023/12/17 04:18:24;;;;;;;10.32;6.55;;;10.20;99.90;;;;;;4989105;28;20382;-63
2023/12/17 04:20:50;;;;;;;10.50;5.97;;;10.20;99.90;;;;;;4988528;28;20340;-63
2023/12/17 04:23:16;;;;;;;11.32;6.63;;;10.00;99.90;;;;;;4988103;28;20375;-63
2023/12/17 04:25:43;;;;;;;8.13;6.00;;;10.20;99.90;;;;;;4972773;28;20073;-63
2023/12/17 04:28:09;;;;;;;9.82;6.45;;;10.10;99.90;;;;;;4987796;28;20427;-62
2023/12/17 04:30:35;;;;;;;9.18;5.97;;;10.10;99.90;;;;;;4989062;28;20181;-65
2023/12/17 04:33:02;;;;;;;10.32;6.20;;;10.20;99.90;;;;;;4972314;28;20455;-63
2023/12/17 04:35:28;;;;;;;9.75;6.15;;;9.90;99.90;;;;;;4988662;28;20050;-63
2023/12/17 04:37:54;;;;;;;11.93;6.28;;;10.20;99.90;;;;;;4987867;28;20047;-63
2023/12/17 04:40:21;;;;;;;10.98;6.90;;;10.10;99.90;;;;;;4988181;28;20046;-62
2023/12/17 04:42:47;;;;;;;10.05;6.60;;;10.10;99.90;;;;;;4988461;28;20064;-62
2023/12/17 04:45:13;;;;;;;8.95;6.43;;;10.00;99.90;;;;;;4988448;28;20062;-63
2023/12/17 04:47:40;;;;;;;9.60;6.18;;;10.00;99.90;;;;;;4971136;28;20390;-62
2023/12/17 04:50:07;;;;;;;10.30;5.90;;;10.20;99.90;;;;;;4988356;28;20459;-62
2023/12/17 04:52:33;;;;;;;10.75;6.10;;;10.10;99.90;;;;;;4988384;28;20108;-63
2023/12/17 04:54:59;;;;;;;9.55;5.28;;;10.00;99.90;;;;;;4989280;28;20407;-62
2023/12/17 04:57:26;;;;;;;10.93;6.13;;;10.00;99.90;;;;;;4987506;28;20057;-62
2023/12/17 04:59:52;;;;;;;10.45;5.68;;;10.10;99.90;;;;;;4988183;28;20052;-62
2023/12/17 05:02:18;;;;;;;11.02;6.05;;;10.10;99.90;;;;;;4987727;28;20493;-62
2023/12/17 05:04:45;;;;;;;10.55;6.70;;;10.00;99.90;;;;;;4988041;28;20051;-61
2023/12/17 05:07:11;;;;;;;9.77;6.15;;;10.10;99.90;;;;;;4987394;28;20069;-62
2023/12/17 05:09:37;;;;;;;10.43;6.18;;;10.00;99.90;;;;;;4972110;28;20046;-62
2023/12/17 05:12:04;;;;;;;8.95;5.72;;;9.90;99.90;;;;;;4988259;28;20054;-62
2023/12/17 05:14:30;;;;;;;8.90;5.80;;;10.10;99.90;;;;;;4988172;28;20050;-62
2023/12/17 05:16:57;;;;;;;11.30;6.20;;;10.00;99.90;;;;;;4987275;28;20054;-63
2023/12/17 05:19:23;;;;;;;7.85;5.60;;;10.10;99.90;;;;;;4987601;28;20057;-63
2023/12/17 05:21:49;;;;;;;7.22;4.95;;;10.00;99.90;;;;;;4987483;28;20082;-63
2023/12/17 05:24:16;;;;;;;7.43;5.03;;;10.00;99.90;;;;;;4987922;28;20046;-62
2023/12/17 05:26:42;;;;;;;9.23;4.78;;;10.00;99.90;;;;;;4986615;28;20085;-62
2023/12/17 05:29:09;;;;;;;6.75;3.83;;;10.00;99.90;;;;;;4987362;28;20462;-62
2023/12/17 05:31:35;;;;;;;7.75;4.30;;;10.00;99.90;;;;;;4987962;28;20058;-63
2023/12/17 05:34:01;;;;;;;8.77;4.03;;;9.90;99.90;;;;;;4989170;28;20097;-62
2023/12/17 05:36:28;;;;;;;7.70;4.20;;;9.80;99.90;;;;;;4987347;28;20118;-62
2023/12/17 05:38:54;;;;;;;7.88;3.78;;;9.80;99.90;;;;;;4987643;28;20046;-62
2023/12/17 05:41:20;;;;;;;7.32;3.92;;;9.80;99.90;;;;;;4987767;28;20126;-63
2023/12/17 05:43:47;;;;;;;8.75;5.38;;;9.80;99.90;;;;;;4970899;28;20049;-62
2023/12/17 05:46:13;;;;;;;9.05;4.70;;;10.00;99.90;;;;;;4987799;28;20077;-62
2023/12/17 05:48:39;;;;;;;8.30;4.88;;;9.80;99.90;;;;;;4987242;28;20053;-63
2023/12/17 05:51:08;;;;;;;7.28;4.85;;;9.90;99.90;;;;;;4987994;28;20551;-62
2023/12/17 05:53:34;;;;;;;8.73;4.55;;;9.80;99.90;;;;;;4987641;28;20133;-62
2023/12/17 05:56:00;;;;;;;8.77;4.60;;;9.90;99.90;;;;;;4971746;28;20473;-62
2023/12/17 05:58:27;;;;;;;9.63;5.00;;;9.80;99.90;;;;;;4986997;28;20077;-63
2023/12/17 06:00:56;;;;;;;8.50;5.40;;;9.90;99.90;;;;;;4987191;28;20042;-63
2023/12/17 06:03:22;;;;;;;9.15;5.30;;;9.80;99.90;;;;;;4987522;28;20054;-62
2023/12/17 06:05:48;;;;;;;11.73;5.45;;;9.80;99.90;;;;;;4982709;28;20053;-62
2023/12/17 06:08:14;;;;;;;10.05;5.22;;;9.90;99.90;;;;;;4976748;28;20051;-61
2023/12/17 06:10:41;;;;;;;9.57;5.32;;;9.70;99.90;;;;;;4987269;28;20330;-61
2023/12/17 06:13:07;;;;;;;9.93;5.13;;;9.90;99.90;;;;;;4971055;28;20054;-62
2023/12/17 06:15:33;;;;;;;7.82;5.00;;;9.80;99.90;;;;;;4987545;28;20350;-63
2023/12/17 06:18:00;;;;;;;7.90;5.10;;;9.90;99.90;;;;;;4986744;28;20067;-63
2023/12/17 06:20:26;;;;;;;9.65;5.32;;;9.70;99.90;;;;;;4986928;28;20042;-63
2023/12/17 06:22:52;;;;;;;8.13;5.30;;;9.80;99.90;;;;;;4987299;28;20125;-64
2023/12/17 06:25:19;;;;;;;7.13;5.20;;;9.80;99.90;;;;;;4986492;28;20089;-62
2023/12/17 06:27:45;;;;;;;9.82;5.88;;;9.80;99.90;;;;;;4986070;28;20466;-63
2023/12/17 06:30:12;;;;;;;9.07;5.30;;;9.70;99.90;;;;;;4987096;28;20054;-62
2023/12/17 06:32:38;;;;;;;10.00;5.88;;;9.70;99.90;;;;;;4986739;28;20080;-63
2023/12/17 06:35:05;;;;;;;7.28;5.25;;;9.90;99.90;;;;;;4987028;28;20575;-63
2023/12/17 06:37:32;;;;;;;12.32;5.88;;;9.70;99.90;;;;;;4985203;28;20065;-63
2023/12/17 06:39:58;;;;;;;10.65;5.93;;;9.80;99.90;;;;;;4986397;28;20346;-63
2023/12/17 06:42:24;;;;;;;9.93;6.07;;;9.80;99.90;;;;;;4986697;28;20482;-63
2023/12/17 06:44:51;;;;;;;13.00;6.32;;;9.60;99.90;;;;;;4986326;28;20143;-63
2023/12/17 06:47:18;;;;;;;10.23;6.47;;;9.60;99.90;;;;;;4985736;28;20050;-63
2023/12/17 06:49:45;;;;;;;11.75;7.45;;;9.60;99.90;;;;;;4986430;28;20493;-63
2023/12/17 06:52:11;;;;;;;10.38;6.63;;;9.80;99.90;;;;;;4970178;28;20439;-62
2023/12/17 06:54:37;;;;;;;9.35;6.35;;;9.50;99.90;;;;;;4986535;28;20075;-62
2023/12/17 06:57:04;;;;;;;11.45;7.20;;;9.60;99.90;;;;;;4986184;28;20050;-63
2023/12/17 06:59:30;;;;;;;10.52;6.25;;;9.60;99.90;;;;;;4985589;28;20541;-63
2023/12/17 07:01:56;;;;;;;13.98;6.63;;;9.70;99.90;;;;;;4986408;28;20046;-63
2023/12/17 07:04:23;;;;;;;11.15;6.60;;;9.80;99.90;;;;;;4985980;28;20080;-64
2023/12/17 07:06:49;;;;;;;8.32;6.38;;;9.60;99.90;;;;;;4984906;28;20046;-64
2023/12/17 07:09:15;;;;;;;10.57;6.80;;;9.70;99.90;;;;;;4986212;28;20058;-63
2023/12/17 07:11:42;;;;;;;14.30;6.97;;;9.50;99.90;;;;;;4986483;28;20456;-62
2023/12/17 07:14:08;;;;;;;13.30;7.05;;;9.50;99.90;;;;;;4986160;28;20498;-63
2023/12/17 07:16:35;;;;;;;9.10;6.13;;;9.60;99.90;;;;;;4985752;28;20050;-63
2023/12/17 07:19:02;;;;;;;7.57;5.32;;;9.60;99.90;;;;;;4976680;28;20447;-63
2023/12/17 07:21:28;;;;;;;11.35;7.00;;;9.60;99.90;;;;;;4976354;28;20526;-63
2023/12/17 07:23:56;;;;;;;10.13;6.57;;;9.60;99.90;;;;;;4975719;28;20089;-62
2023/12/17 07:26:22;;;;;;;12.60;6.80;;;9.50;99.90;;;;;;4959291;28;20054;-63
2023/12/17 07:28:48;;;;;;;10.57;5.97;;;9.60;99.90;;;;;;4978799;28;20042;-63
2023/12/17 07:31:15;;;;;;;10.88;6.80;;;9.70;99.90;;;;;;4965602;28;20125;-63
2023/12/17 07:33:41;;;;;;;12.20;6.72;;;9.50;99.90;;;;;;4986681;28;20064;-62
2023/12/17 07:36:08;;;;;;;12.00;6.50;;;9.60;99.90;;;;;;4986416;28;20058;-63
2023/12/17 07:38:34;;;;;;;13.10;6.35;;;9.60;99.90;;;;;;4977096;28;20077;-62
2023/12/17 07:41:01;;;;;;;10.10;7.05;;;9.60;99.90;;;;;;4986307;28;20189;-63
2023/12/17 07:43:28;;;;;;;12.27;6.97;;;9.70;99.90;;;;;;4986298;28;20096;-63
2023/12/17 07:45:55;;;;;;;12.23;8.23;;;9.50;99.90;;;;;;4985216;28;20058;-63
2023/12/17 07:48:21;;;;;;;15.90;7.63;;;9.60;99.90;;;;;;4985041;28;20046;-62
2023/12/17 07:50:47;;;;;;;12.75;7.55;;;9.50;99.90;;;;;;4970261;28;20069;-62
2023/12/17 07:53:14;;;;;;;13.05;8.18;;;9.60;99.90;;;;;;4986707;28;20057;-63
2023/12/17 07:55:40;;;;;;;12.93;8.25;;;9.60;99.90;;;;;;4986721;28;20539;-63
2023/12/17 07:58:07;;;;;;;13.90;8.60;;;9.60;99.90;;;;;;4985765;28;20046;-62
2023/12/17 08:00:34;;;;;;;15.60;9.30;;;9.50;99.90;;;;;;4983217;28;20042;-62
2023/12/17 08:03:00;;;;;;;12.60;7.47;;;9.60;99.90;;;;;;4975617;28;20039;-63
2023/12/17 08:05:26;;;;;;;10.85;8.63;;;9.50;99.90;;;;;;4974285;28;20046;-63
2023/12/17 08:07:53;;;;;;;14.63;7.70;;;9.60;99.90;;;;;;4976242;28;20065;-63
2023/12/17 08:10:19;;;;;;;13.07;8.23;;;9.70;99.90;;;;;;4974849;28;20493;-63
2023/12/17 08:12:46;;;;;;;11.70;7.38;;;9.50;99.90;;;;;;4976676;28;20050;-63
2023/12/17 08:15:12;;;;;;;15.30;8.73;;;9.70;99.90;;;;;;4974651;28;20171;-63
2023/12/17 08:17:38;;;;;;;12.90;7.80;;;9.50;99.90;;;;;;4971932;28;20057;-62
2023/12/17 08:20:05;;;;;;;15.73;9.13;;;9.60;99.90;;;;;;4975388;28;20160;-63
2023/12/17 08:22:32;;;;;;;12.13;8.13;;;9.50;99.90;;;;;;4975030;28;20046;-62
2023/12/17 08:24:58;;;;;;;17.10;8.50;;;9.70;99.90;;;;;;4976261;28;20054;-63
2023/12/17 08:27:24;;;;;;;15.40;9.38;;;9.70;99.90;;;;;;4975634;28;20428;-63
2023/12/17 08:29:51;;;;;;;16.38;9.38;;;9.70;99.90;;;;;;4974816;28;20047;-62
2023/12/17 08:32:17;;;;;;;15.05;8.57;;;9.70;99.90;;;;;;4975753;28;20054;-62
2023/12/17 08:34:43;;;;;;;13.48;8.60;;;9.70;99.90;;;;;;4971479;28;20046;-62
2023/12/17 08:37:10;;;;;;;12.75;8.48;;;9.50;99.90;;;;;;4979569;28;20053;-62
2023/12/17 08:39:36;;;;;;;16.27;8.98;;;9.60;99.90;;;;;;4983177;28;20047;-63
2023/12/17 08:42:03;;;;;;;21.23;10.07;;;9.70;99.90;;;;;;4984255;28;20081;-63
2023/12/17 08:44:29;;;;;;;17.60;10.30;;;9.60;99.90;;;;;;4984619;28;20456;-62
2023/12/17 08:46:55;;;;;;;19.80;10.10;;;9.70;99.90;;;;;;4983767;28;20060;-63
2023/12/17 08:49:22;;;;;;;19.15;11.60;;;9.80;99.90;;;;;;4983772;28;20469;-63
2023/12/17 08:51:49;;;;;;;18.45;10.05;;;9.60;99.90;;;;;;4984752;28;20066;-62
2023/12/17 08:54:16;;;;;;;17.95;10.57;;;9.60;99.90;;;;;;4985458;28;20046;-63
2023/12/17 08:56:42;;;;;;;21.00;11.32;;;9.70;99.90;;;;;;4984274;28;20102;-63
2023/12/17 08:59:08;;;;;;;18.33;10.40;;;9.60;99.90;;;;;;4985358;28;20054;-63
2023/12/17 09:01:36;;;;;;;16.67;11.10;;;9.80;99.90;;;;;;4985775;28;20065;-64
2023/12/17 09:04:03;;;;;;;16.65;11.07;;;9.80;99.90;;;;;;4988504;28;20157;-61
2023/12/17 09:06:29;;;;;;;16.67;11.30;;;9.60;99.90;;;;;;4988184;28;20069;-63
2023/12/17 09:08:55;;;;;;;19.77;11.27;;;9.80;99.90;;;;;;4987018;28;20218;-64
2023/12/17 09:11:22;;;;;;;20.05;12.25;;;9.70;99.90;;;;;;4972096;28;20059;-63
2023/12/17 09:13:48;;;;;;;17.77;10.95;;;9.60;99.90;;;;;;4989602;28;20077;-63
2023/12/17 09:16:14;;;;;;;23.42;11.10;;;9.60;99.90;;;;;;4988502;28;20133;-64
2023/12/17 09:18:41;;;;;;;25.55;11.23;;;9.60;99.90;;;;;;4987577;28;20049;-63
2023/12/17 09:21:08;;;;;;;17.02;10.75;;;9.70;99.90;;;;;;4987996;28;20331;-63
2023/12/17 09:23:34;;;;;;;21.13;12.25;;;9.70;99.90;;;;;;4989435;28;20039;-62
2023/12/17 09:26:00;;;;;;;23.75;12.25;;;9.70;99.90;;;;;;4988395;28;20061;-63
2023/12/17 09:28:27;;;;;;;23.23;12.15;;;9.70;99.90;;;;;;4988500;28;20050;-62
2023/12/17 09:30:53;;;;;;;22.77;12.38;;;9.80;99.90;;;;;;4989046;28;20060;-63
2023/12/17 09:33:21;;;;;;;25.27;12.68;;;9.60;99.90;;;;;;4987320;28;20528;-62
2023/12/17 09:35:47;;;;;;;20.10;13.00;;;9.60;99.90;;;;;;4988670;28;20073;-63
2023/12/17 09:38:15;;;;;;;22.73;12.60;;;9.80;99.90;;;;;;4987422;28;20405;-63
2023/12/17 09:40:43;;;;;;;23.23;13.43;;;9.60;99.90;;;;;;4989048;28;20104;-63
2023/12/17 09:43:10;;;;;;;21.20;13.25;;;9.60;99.90;;;;;;4971905;28;20055;-63
2023/12/17 09:45:37;;;;;;;22.65;12.38;;;9.60;99.90;;;;;;4987502;28;20073;-63
2023/12/17 09:48:04;;;;;;;23.17;11.85;;;9.80;99.90;;;;;;4987929;28;20046;-63
2023/12/17 09:50:30;;;;;;;23.20;12.48;;;9.60;99.90;;;;;;4987295;28;20058;-63
2023/12/17 09:52:56;;;;;;;20.33;11.07;;;9.70;99.90;;;;;;4986883;28;20064;-63
2023/12/17 09:55:23;;;;;;;18.95;11.20;;;9.60;99.90;;;;;;4987076;28;20061;-63
2023/12/17 09:57:51;;;;;;;18.92;10.90;;;9.60;99.90;;;;;;4986503;28;20054;-63
2023/12/17 10:00:17;;;;;;;20.45;10.88;;;9.80;99.90;;;;;;4986989;28;20094;-63
2023/12/17 10:02:44;;;;;;;19.33;10.10;;;9.80;99.90;;;;;;4988408;28;20065;-63
2023/12/17 10:05:11;;;;;;;17.50;10.43;;;9.60;99.90;;;;;;4988289;28;20063;-63
2023/12/17 10:07:37;;;;;;;14.60;9.75;;;9.70;99.90;;;;;;4986714;28;20430;-63
2023/12/17 10:10:04;;;;;;;19.77;9.63;;;9.70;99.90;;;;;;4988489;28;20625;-63
2023/12/17 10:12:31;;;;;;;17.90;9.98;;;9.80;99.90;;;;;;4986759;28;20054;-63
2023/12/17 10:14:57;;;;;;;15.60;9.38;;;9.80;99.90;;;;;;4986933;28;20051;-63
2023/12/17 10:17:24;;;;;;;15.23;9.27;;;9.70;99.90;;;;;;4987403;28;20068;-62
2023/12/17 10:19:54;;;;;;;13.68;8.88;;;9.80;99.90;;;;;;4986788;28;20042;-62
2023/12/17 10:22:20;;;;;;;13.73;8.90;;;9.70;99.90;;;;;;4988190;28;20077;-62
2023/12/17 10:24:47;;;;;;;16.15;9.40;;;9.60;99.90;;;;;;4987112;28;20165;-62
2023/12/17 10:27:18;;;;;;;14.55;8.82;;;9.70;99.90;;;;;;4987631;28;20043;-63
2023/12/17 10:29:52;;;;;;;14.52;9.80;;;9.60;99.90;;;;;;4987662;28;20047;-63
2023/12/17 10:32:23;;;;;;;14.70;8.13;;;9.70;99.90;;;;;;4987828;28;20038;-62
2023/12/17 10:34:50;;;;;;;13.70;8.48;;;9.70;99.90;;;;;;4986433;28;20050;-63
2023/12/17 10:37:23;;;;;;;14.43;8.98;;;9.80;99.90;;;;;;4986153;28;20050;-63
2023/12/17 10:39:54;;;;;;;13.70;9.13;;;9.80;99.90;;;;;;4986144;28;20058;-63
2023/12/17 10:42:22;;;;;;;14.73;8.57;;;9.70;99.90;;;;;;4987486;28;20050;-63
2023/12/17 10:44:52;;;;;;;13.18;8.23;;;9.60;99.90;;;;;;4986729;28;20066;-63
2023/12/17 10:47:24;;;;;;;15.70;9.13;;;9.80;99.90;;;;;;4969616;28;20043;-63
2023/12/17 10:49:53;;;;;;;14.90;8.75;;;9.80;99.90;;;;;;4967380;28;20292;-62
2023/12/17 10:52:22;;;;;;;14.18;8.20;;;9.70;99.90;;;;;;4967327;28;20055;-62
2023/12/17 10:54:48;;;;;;;12.32;8.45;;;9.80;99.90;;;;;;4966779;28;20059;-63
2023/12/17 10:57:20;;;;;;;15.98;9.57;;;9.60;99.90;;;;;;4966897;28;20070;-63
2023/12/17 10:59:51;;;;;;;14.88;9.77;;;9.60;99.90;;;;;;4986146;28;20054;-63
2023/12/17 11:02:22;;;;;;;14.98;9.80;;;9.80;99.90;;;;;;4975862;28;20451;-63
2023/12/17 11:04:49;;;;;;;12.57;9.63;;;9.60;99.90;;;;;;4972108;28;20042;-64
2023/12/17 11:07:20;;;;;;;16.60;9.43;;;9.80;99.90;;;;;;4981875;28;20047;-62
2023/12/17 11:09:47;;;;;;;16.38;10.48;;;9.60;99.90;;;;;;4986275;28;20397;-63
2023/12/17 11:12:18;;;;;;;16.35;11.38;;;9.80;99.90;;;;;;4986260;28;20141;-63
2023/12/17 11:14:45;;;;;;;21.45;11.45;;;9.70;99.90;;;;;;4986238;28;20064;-64
2023/12/17 11:17:14;;;;;;;20.65;11.77;;;9.60;99.90;;;;;;5026635;28;20051;-64
2023/12/17 11:19:57;;;;;;;19.92;12.35;;;9.60;99.90;;;;;;4975753;28;20415;-63
2023/12/17 11:22:24;;;;;;;;;;;9.70;99.90;;;;;;4969367;28;20402;-64
2023/12/17 11:24:54;;;;;;;22.02;11.40;;;9.70;99.90;;;;;;4975184;28;19940;-63
2023/12/17 11:27:22;;;;;;;24.13;12.88;;;9.60;99.90;;;;;;4955056;28;20111;-64
2023/12/17 11:29:50;;;;;;;19.83;11.88;;;9.60;99.90;;;;;;4986655;28;20058;-64
2023/12/17 11:32:18;;;;;;;27.60;14.05;;;9.50;99.90;;;;;;4986317;28;20061;-64
2023/12/17 11:34:49;;;;;;;28.05;14.32;;;9.50;99.90;;;;;;4986398;28;20128;-64
2023/12/17 11:37:19;;;;;;;28.13;15.57;;;9.60;99.90;;;;;;4986030;28;20751;-63
2023/12/17 11:39:47;;;;;;;27.77;15.27;;;9.50;99.90;;;;;;4987061;28;20087;-63
2023/12/17 11:42:14;;;;;;;24.45;13.80;;;9.40;99.90;;;;;;4986234;28;20049;-64
2023/12/17 11:44:49;;;;;;;22.95;13.45;;;9.40;99.90;;;;;;4985755;28;20408;-65
2023/12/17 11:47:17;;;;;;;23.75;13.32;;;9.60;99.90;;;;;;4984747;28;20137;-63
2023/12/17 11:49:45;;;;;;;24.48;14.30;;;9.40;99.90;;;;;;4982660;28;20069;-64
2023/12/17 11:52:18;;;;;;;25.30;14.18;;;9.60;99.90;;;;;;4979156;28;20547;-63
2023/12/17 11:54:44;;;;;;;23.25;13.57;;;9.60;99.90;;;;;;4987842;28;20510;-64
2023/12/17 11:57:23;;;;;;;25.15;14.07;;;9.60;99.90;;;;;;4987608;28;20046;-63
2023/12/17 11:59:50;;;;;;;26.67;14.02;;;9.50;99.90;;;;;;4987072;28;20374;-64
2023/12/17 12:02:18;;;;;;;24.55;13.40;;;9.50;99.90;;;;;;4967455;28;20051;-64
2023/12/17 12:04:46;;;;;;;22.65;12.77;;;9.40;99.90;;;;;;4975605;28;20430;-64
2023/12/17 12:07:17;;;;;;;25.67;14.05;;;9.50;99.90;;;;;;4967046;28;20150;-65
2023/12/17 12:09:48;;;;;;;22.45;13.52;;;9.40;99.90;;;;;;4986817;28;20445;-64
2023/12/17 12:12:19;;;;;;;20.13;12.18;;;9.60;99.90;;;;;;4982027;28;20054;-65
2023/12/17 12:14:48;;;;;;;19.42;10.93;;;9.60;99.90;;;;;;4981974;28;20054;-65
2023/12/17 12:17:38;;;;;;;20.83;12.32;;;9.50;99.90;;;;;;4974953;28;20332;-64
2023/12/17 12:20:09;;;;;;;18.27;11.98;;;9.50;99.90;;;;;;4971452;28;20049;-64
2023/12/17 12:22:37;;;;;;;19.73;10.63;;;9.50;99.90;;;;;;4952498;28;20523;-65
2023/12/17 12:25:04;;;;;;;17.05;10.43;;;9.50;99.90;;;;;;4952264;28;20065;-64
2023/12/17 12:27:30;;;;;;;21.17;12.15;;;9.40;99.90;;;;;;4969215;28;20130;-64
2023/12/17 12:29:57;;;;;;;17.13;10.60;;;9.50;99.90;;;;;;4970468;28;20043;-64
2023/12/17 12:32:27;;;;;;;17.85;10.50;;;9.40;99.90;;;;;;4970752;28;20054;-64
2023/12/17 12:34:55;;;;;;;18.52;10.63;;;9.40;99.90;;;;;;4971051;28;20537;-65
2023/12/17 12:37:38;;;;;;;18.23;11.65;;;9.40;99.90;;;;;;4969737;28;20051;-64
2023/12/17 12:40:06;;;;;;;21.55;11.35;;;9.40;99.90;;;;;;4971565;28;20074;-64
2023/12/17 12:42:33;;;;;;;20.65;11.48;;;9.40;99.90;;;;;;4971991;28;20055;-64